Arrantzale — EBVT — position and weather

sailwx.info

Track history (hours):
 
Tides and Currents Weather Stations Pressure Air Temp Water Temp Dewpoint Dewpoint Depression Visibility Wind Speed Wind Dir Waves Ship Positions

Arrantzale

Last reported at 2015-May-22 10:32 UTC. Time now 2015-May-24 15:20 UTC.
Position N 43°23' W 001°47'.

Length 32 m.

Type: Fishing. MMSI: 224065290.

Date/timePositionNaut miles runAvg speedWind from/ knotsBaromVisibWave heightAir tempDewpointWater temp
2015-May-22 10:32N 43°23' W 001°47'0 0.1
2015-May-22 09:33N 43°23' W 001°47'2 0.0
2015-May-20 14:34N 43°25' W 001°49'2 1.8
2015-May-20 13:33N 43°23' W 001°47'0 0.0
2015-May-20 09:23N 43°23' W 001°47'0 0.0
2015-May-20 08:33N 43°23' W 001°47'0 0.0
2015-May-20 07:33N 43°23' W 001°47'0 0.0
2015-May-20 06:33N 43°23' W 001°47'0 0.0
2015-May-20 05:33N 43°23' W 001°48'0 0.0
2015-May-20 04:33N 43°23' W 001°48'0 0.0
2015-May-20 03:33N 43°23' W 001°48'0 0.0
2015-May-20 02:33N 43°23' W 001°48'0 0.0
2015-May-20 01:33N 43°23' W 001°48'0 0.0
2015-May-20 00:33N 43°23' W 001°48'0 0.0
2015-May-19 23:33N 43°23' W 001°48'0 0.0
2015-May-19 22:32N 43°23' W 001°48'0 0.0
2015-May-19 21:33N 43°23' W 001°47'0 0.0
2015-May-19 20:33N 43°23' W 001°47'2 1.6
2015-May-19 19:34N 43°25' W 001°49'3 0.5
2015-May-19 13:22N 43°24' W 001°53'4 4.9
2015-May-19 12:33N 43°23' W 001°48'0 0.0
2015-May-19 11:33N 43°23' W 001°48'0 0.0
2015-May-19 10:33N 43°23' W 001°48'0 0.0
2015-May-19 09:33N 43°23' W 001°48'0 0.0
2015-May-19 08:33N 43°23' W 001°48'0 0.0
2015-May-19 07:33N 43°23' W 001°48'3 2.5
2015-May-19 06:34N 43°24' W 001°51'3 0.1
2015-May-17 23:23N 43°26' W 001°53'5 6.0
2015-May-17 22:33N 43°23' W 001°47'  
2015-May-15 09:34N 43°23' W 001°47'0 0.0
2015-May-15 08:33N 43°23' W 001°47'0 0.0
2015-May-14 18:33N 43°23' W 001°47'0 0.1
2015-May-14 17:33N 43°23' W 001°48'0 0.0
2015-May-14 16:33N 43°23' W 001°48'  
Track history (hours):
 
Tides and Currents Weather Stations Pressure Air Temp Water Temp Dewpoint Dewpoint Depression Visibility Wind Speed Wind Dir Waves Ship Positions

Arrantzale

Last reported at 2015-May-22 10:32 UTC. Time now 2015-May-24 15:20 UTC.
Position N 43°23' W 001°47'.

Length 32 m.

Type: Fishing. MMSI: 224065290.

Date/timePositionNaut miles runAvg speedWind from/ knotsBaromVisibWave heightAir tempDewpointWater temp
2015-May-22 10:32N 43°23' W 001°47'0 0.1
2015-May-22 09:33N 43°23' W 001°47'2 0.0
2015-May-20 14:34N 43°25' W 001°49'2 1.8
2015-May-20 13:33N 43°23' W 001°47'0 0.0
2015-May-20 09:23N 43°23' W 001°47'0 0.0
2015-May-20 08:33N 43°23' W 001°47'0 0.0
2015-May-20 07:33N 43°23' W 001°47'0 0.0
2015-May-20 06:33N 43°23' W 001°47'0 0.0
2015-May-20 05:33N 43°23' W 001°48'0 0.0
2015-May-20 04:33N 43°23' W 001°48'0 0.0
2015-May-20 03:33N 43°23' W 001°48'0 0.0
2015-May-20 02:33N 43°23' W 001°48'0 0.0
2015-May-20 01:33N 43°23' W 001°48'0 0.0
2015-May-20 00:33N 43°23' W 001°48'0 0.0
2015-May-19 23:33N 43°23' W 001°48'0 0.0
2015-May-19 22:32N 43°23' W 001°48'0 0.0
2015-May-19 21:33N 43°23' W 001°47'0 0.0
2015-May-19 20:33N 43°23' W 001°47'2 1.6
2015-May-19 19:34N 43°25' W 001°49'3 0.5
2015-May-19 13:22N 43°24' W 001°53'4 4.9
2015-May-19 12:33N 43°23' W 001°48'0 0.0
2015-May-19 11:33N 43°23' W 001°48'0 0.0
2015-May-19 10:33N 43°23' W 001°48'0 0.0
2015-May-19 09:33N 43°23' W 001°48'0 0.0
2015-May-19 08:33N 43°23' W 001°48'0 0.0
2015-May-19 07:33N 43°23' W 001°48'3 2.5
2015-May-19 06:34N 43°24' W 001°51'3 0.1
2015-May-17 23:23N 43°26' W 001°53'5 6.0
2015-May-17 22:33N 43°23' W 001°47'  
2015-May-15 09:34N 43°23' W 001°47'0 0.0
2015-May-15 08:33N 43°23' W 001°47'0 0.0
2015-May-14 18:33N 43°23' W 001°47'0 0.1
2015-May-14 17:33N 43°23' W 001°48'0 0.0
2015-May-14 16:33N 43°23' W 001°48'  

Dump ship's entire track history